Time;durP1;ratioP1;P1;durP2;ratioP2;P2;SDS_P1;SDS_P2;PMS_P1;PMS_P2;Temp;Humidity;BMP_temperature;BMP_pressure;BME280_temperature;BME280_humidity;BME280_pressure;Samples;Min_cycle;Max_cycle;Signal;HPM_P1;HPM_P2
2022/04/23 00:01:44;;;;;;;12.07;7.10;;;359.30;2329.60;;;;;;5076446;28;20117;-76
2022/04/23 00:04:11;;;;;;;13.45;7.35;;;359.30;2329.60;;;;;;5074893;28;20063;-76
2022/04/23 00:06:37;;;;;;;14.48;8.00;;;359.30;2329.60;;;;;;5076196;28;20025;-76
2022/04/23 00:09:04;;;;;;;21.10;8.45;;;359.30;2329.60;;;;;;5076236;28;20428;-77
2022/04/23 00:11:30;;;;;;;22.35;11.65;;;359.30;2329.60;;;;;;5075223;28;20052;-77
2022/04/23 00:13:56;;;;;;;27.55;12.88;;;359.30;2329.60;;;;;;5074583;28;20078;-77
2022/04/23 00:16:25;;;;;;;28.20;16.42;;;359.10;2329.60;;;;;;5075062;28;20385;-77
2022/04/23 00:18:51;;;;;;;27.50;17.48;;;359.20;2329.60;;;;;;5074810;28;20028;-74
2022/04/23 00:21:21;;;;;;;34.58;23.35;;;359.00;2329.60;;;;;;5073888;28;20027;-74
2022/04/23 00:23:49;;;;;;;34.92;22.58;;;359.10;2329.60;;;;;;5074829;28;20029;-76
2022/04/23 00:26:15;;;;;;;37.70;24.55;;;359.10;2329.60;;;;;;5074527;28;20036;-78
2022/04/23 00:28:41;;;;;;;47.40;30.73;;;359.00;2329.60;;;;;;5073518;28;20522;-76
2022/04/23 00:31:07;;;;;;;44.25;26.15;;;358.90;2329.60;;;;;;5075687;28;20389;-75
2022/04/23 00:33:37;;;;;;;29.17;19.70;;;359.00;2329.60;;;;;;5075352;28;20401;-75
2022/04/23 00:36:09;;;;;;;25.60;14.30;;;359.00;2329.60;;;;;;5074738;28;20024;-76
2022/04/23 00:38:37;;;;;;;19.48;12.80;;;359.00;2329.60;;;;;;5075955;28;20042;-75
2022/04/23 00:41:03;;;;;;;21.67;14.63;;;359.00;2329.60;;;;;;5073023;28;20029;-75
2022/04/23 00:43:33;;;;;;;22.38;14.73;;;358.90;2329.60;;;;;;5073229;28;20347;-75
2022/04/23 00:46:00;;;;;;;17.60;12.15;;;358.90;2329.60;;;;;;5075591;28;20017;-74
2022/04/23 00:48:26;;;;;;;15.40;9.50;;;359.00;2329.60;;;;;;5074372;28;20085;-75
2022/04/23 00:50:56;;;;;;;16.75;9.85;;;359.00;2329.60;;;;;;5073330;28;20024;-74
2022/04/23 00:53:23;;;;;;;20.13;12.70;;;359.00;2329.60;;;;;;5073277;28;20091;-75
2022/04/23 00:55:50;;;;;;;18.00;9.48;;;359.00;2329.60;;;;;;5074206;28;20021;-75
2022/04/23 00:58:17;;;;;;;16.98;8.90;;;358.90;2329.60;;;;;;5073996;28;20021;-74
2022/04/23 01:00:43;;;;;;;18.05;10.77;;;358.80;2329.60;;;;;;5074688;28;20063;-77
2022/04/23 01:03:12;;;;;;;30.27;17.05;;;358.50;2329.60;;;;;;5073864;28;20079;-73
2022/04/23 01:05:44;;;;;;;31.85;18.95;;;358.50;1945.60;;;;;;5073266;28;20625;-74
2022/04/23 01:08:14;;;;;;;26.10;16.33;;;358.80;2329.60;;;;;;5073204;28;20029;-74
2022/04/23 01:10:42;;;;;;;24.88;14.10;;;358.70;2329.60;;;;;;5073310;28;20055;-73
2022/04/23 01:13:08;;;;;;;23.20;13.60;;;358.70;2329.60;;;;;;5073830;28;20028;-76
2022/04/23 01:15:34;;;;;;;22.17;13.13;;;358.80;2329.60;;;;;;5073624;28;20479;-75
2022/04/23 01:18:00;;;;;;;21.17;12.85;;;358.80;2329.60;;;;;;5073530;28;20537;-76
2022/04/23 01:20:26;;;;;;;17.65;10.45;;;358.70;2329.60;;;;;;5073219;28;20035;-75
2022/04/23 01:22:51;;;;;;;16.92;10.35;;;358.80;2329.60;;;;;;5074622;28;20036;-75
2022/04/23 01:25:17;;;;;;;18.65;10.10;;;358.80;2329.60;;;;;;5073721;28;20026;-75
2022/04/23 01:27:47;;;;;;;21.35;10.85;;;358.80;2329.60;;;;;;5073422;28;20465;-75
2022/04/23 01:30:13;;;;;;;17.95;9.27;;;358.80;2329.60;;;;;;5074810;28;20033;-74
2022/04/23 01:32:39;;;;;;;17.65;8.20;;;358.80;2329.60;;;;;;5074653;28;20100;-75
2022/04/23 01:35:06;;;;;;;16.67;7.38;;;358.80;2329.60;;;;;;5072890;28;20021;-75
2022/04/23 01:37:31;;;;;;;87.03;54.78;;;358.90;2329.60;;;;;;5072139;28;20054;-74
2022/04/23 01:39:57;;;;;;;36.85;24.25;;;358.90;2329.60;;;;;;5073006;28;20095;-74
2022/04/23 01:42:23;;;;;;;20.88;11.45;;;358.90;2329.60;;;;;;5073132;28;20126;-75
2022/04/23 01:44:52;;;;;;;25.98;13.48;;;358.80;2329.60;;;;;;5073774;28;20162;-74
2022/04/23 01:47:19;;;;;;;27.65;16.58;;;358.80;2329.60;;;;;;5072931;28;20470;-75
2022/04/23 01:49:45;;;;;;;25.17;15.60;;;358.90;2329.60;;;;;;5072830;28;20029;-73
2022/04/23 01:52:12;;;;;;;22.50;14.20;;;358.80;2329.60;;;;;;5074066;28;20028;-74
2022/04/23 01:54:38;;;;;;;18.02;12.55;;;358.90;2329.60;;;;;;5074355;28;20378;-74
2022/04/23 01:57:04;;;;;;;20.02;12.52;;;358.70;2329.60;;;;;;5072334;28;20416;-75
2022/04/23 01:59:30;;;;;;;18.35;10.80;;;358.80;2329.60;;;;;;5072747;28;20059;-74
2022/04/23 02:01:58;;;;;;;21.08;12.43;;;358.80;2329.60;;;;;;5074370;28;20052;-75
2022/04/23 02:04:24;;;;;;;20.67;12.98;;;358.80;2329.60;;;;;;5073626;28;20025;-74
2022/04/23 02:06:50;;;;;;;19.02;10.52;;;358.80;1945.60;;;;;;5073711;28;20108;-74
2022/04/23 02:09:17;;;;;;;17.48;7.00;;;358.80;2329.60;;;;;;5073733;28;20381;-77
2022/04/23 02:11:43;;;;;;;12.15;5.25;;;358.80;2329.60;;;;;;5073033;28;20051;-76
2022/04/23 02:14:09;;;;;;;14.65;7.35;;;358.70;2329.60;;;;;;5072785;28;20032;-74
2022/04/23 02:16:36;;;;;;;14.38;7.25;;;358.70;2329.60;;;;;;5072773;28;20466;-74
2022/04/23 02:19:03;;;;;;;23.80;7.90;;;358.50;2329.60;;;;;;5071838;28;20493;-74
2022/04/23 02:21:30;;;;;;;20.23;9.82;;;358.50;2329.60;;;;;;5072731;28;20024;-74
2022/04/23 02:23:56;;;;;;;21.25;9.90;;;358.40;2329.60;;;;;;5071077;28;20059;-73
2022/04/23 02:26:22;;;;;;;11.45;6.15;;;333.70;2329.60;;;;;;5072273;28;20120;-76
2022/04/23 02:28:52;;;;;;;16.00;8.45;;;333.50;2329.60;;;;;;5073526;28;20031;-74
2022/04/23 02:31:18;;;;;;;33.72;22.38;;;333.50;2329.60;;;;;;5072261;28;20052;-75
2022/04/23 02:33:46;;;;;;;25.30;15.32;;;333.60;2329.60;;;;;;5073242;28;20497;-74
2022/04/23 02:36:15;;;;;;;29.70;16.27;;;333.60;2329.60;;;;;;5072449;28;20024;-75
2022/04/23 02:38:41;;;;;;;21.88;12.23;;;333.70;2329.60;;;;;;5072317;28;20095;-76
2022/04/23 02:41:08;;;;;;;31.95;22.70;;;333.70;2329.60;;;;;;5070411;28;20414;-74
2022/04/23 02:43:38;;;;;;;17.33;11.55;;;333.70;2329.60;;;;;;5071894;28;20036;-74
2022/04/23 02:46:07;;;;;;;18.30;11.55;;;358.40;2329.60;;;;;;5073044;28;20016;-75
2022/04/23 02:48:33;;;;;;;17.45;9.00;;;358.40;2329.60;;;;;;5070910;28;20021;-74
2022/04/23 02:51:00;;;;;;;16.45;7.70;;;358.40;2329.60;;;;;;5072563;28;20035;-75
2022/04/23 02:53:26;;;;;;;13.82;6.68;;;358.40;2329.60;;;;;;5069805;28;20033;-75
2022/04/23 02:55:56;;;;;;;12.45;5.95;;;333.70;2329.60;;;;;;5072204;28;20040;-73
2022/04/23 02:58:26;;;;;;;13.20;6.03;;;333.70;2329.60;;;;;;5071237;28;20031;-76
2022/04/23 03:00:53;;;;;;;15.60;6.55;;;333.70;2329.60;;;;;;5072035;28;20036;-75
2022/04/23 03:03:19;;;;;;;10.98;6.32;;;358.40;2252.80;;;;;;5071393;28;20461;-73
2022/04/23 03:05:46;;;;;;;12.15;6.50;;;358.40;2329.60;;;;;;5071629;28;20047;-73
2022/04/23 03:08:13;;;;;;;12.98;7.82;;;358.50;2329.60;;;;;;5072480;28;20094;-75
2022/04/23 03:10:40;;;;;;;14.35;9.25;;;358.50;2329.60;;;;;;5072095;28;20024;-75
2022/04/23 03:13:07;;;;;;;15.32;8.93;;;358.40;2329.60;;;;;;5072505;28;20091;-74
2022/04/23 03:15:34;;;;;;;15.25;8.00;;;358.40;2329.60;;;;;;5071424;28;20029;-76
2022/04/23 03:18:06;;;;;;;12.75;6.20;;;358.50;2329.60;;;;;;5071760;28;20373;-74
2022/04/23 03:20:33;;;;;;;12.18;7.03;;;358.50;2329.60;;;;;;5070869;28;20056;-75
2022/04/23 03:22:58;;;;;;;17.48;8.00;;;358.50;2329.60;;;;;;5071051;28;20033;-73
2022/04/23 03:25:24;;;;;;;19.35;12.10;;;358.40;2329.60;;;;;;5071253;28;20028;-73
2022/04/23 03:27:50;;;;;;;22.52;15.82;;;358.50;2329.60;;;;;;5070821;28;20024;-73
2022/04/23 03:30:16;;;;;;;31.08;17.95;;;358.50;2329.60;;;;;;5073205;28;20104;-75
2022/04/23 03:32:42;;;;;;;25.65;14.82;;;358.40;2329.60;;;;;;5071470;28;20387;-74
2022/04/23 03:35:08;;;;;;;22.35;11.98;;;358.50;2329.60;;;;;;5070708;28;20032;-74
2022/04/23 03:37:38;;;;;;;23.55;12.88;;;333.70;2329.60;;;;;;5071375;28;20046;-73
2022/04/23 03:40:09;;;;;;;22.80;16.00;;;333.70;2329.60;;;;;;5071824;28;20033;-75
2022/04/23 03:42:36;;;;;;;21.58;14.68;;;333.70;2329.60;;;;;;5071311;28;20045;-73
2022/04/23 03:45:06;;;;;;;21.05;13.20;;;333.70;2329.60;;;;;;5071255;28;20036;-74
2022/04/23 03:47:32;;;;;;;16.48;11.35;;;333.60;2329.60;;;;;;5071887;28;20060;-74
2022/04/23 03:50:06;;;;;;;26.15;13.88;;;333.60;2329.60;;;;;;5072449;28;20025;-74
2022/04/23 03:52:31;;;;;;;52.53;26.30;;;333.60;2329.60;;;;;;5072438;28;20028;-74
2022/04/23 03:54:57;;;;;;;22.05;15.05;;;333.50;2329.60;;;;;;5076275;28;20037;-73
2022/04/23 03:57:23;;;;;;;24.95;15.15;;;333.50;2329.60;;;;;;5077515;28;20054;-73
2022/04/23 03:59:49;;;;;;;24.73;14.43;;;333.40;2329.60;;;;;;5074043;28;20024;-76
2022/04/23 04:02:14;;;;;;;69.38;31.05;;;333.50;2329.60;;;;;;5072223;28;20109;-74
2022/04/23 04:04:42;;;;;;;106.25;47.20;;;333.70;2329.60;;;;;;5073988;28;20127;-74
2022/04/23 04:07:08;;;;;;;27.25;16.73;;;333.70;2329.60;;;;;;5075260;28;20025;-73
2022/04/23 04:09:35;;;;;;;22.95;11.02;;;333.60;2329.60;;;;;;5075114;28;20028;-74
2022/04/23 04:12:01;;;;;;;19.15;11.25;;;333.60;2329.60;;;;;;5076482;28;20028;-74
2022/04/23 04:14:27;;;;;;;15.73;8.32;;;333.60;2329.60;;;;;;5075023;28;20029;-74
2022/04/23 04:16:54;;;;;;;17.77;10.98;;;333.70;2329.60;;;;;;5074782;28;20162;-73
2022/04/23 04:19:20;;;;;;;20.90;8.95;;;333.60;2329.60;;;;;;5074080;28;20036;-74
2022/04/23 04:21:47;;;;;;;17.65;9.55;;;333.50;2329.60;;;;;;5076353;28;20032;-75
2022/04/23 04:24:16;;;;;;;22.13;9.82;;;333.50;2329.60;;;;;;5073883;28;20485;-75
2022/04/23 04:26:44;;;;;;;22.90;11.95;;;333.50;2329.60;;;;;;5074967;28;20423;-75
2022/04/23 04:29:11;;;;;;;16.10;11.25;;;333.50;2329.60;;;;;;5075773;28;20077;-74
2022/04/23 04:31:50;;;;;;;14.15;9.35;;;333.40;2329.60;;;;;;5074349;28;20416;-74
2022/04/23 04:34:20;;;;;;;18.80;10.27;;;333.40;2329.60;;;;;;5073857;28;20131;-73
2022/04/23 04:36:47;;;;;;;29.17;19.08;;;333.30;2329.60;;;;;;5073929;28;20031;-74
2022/04/23 04:39:15;;;;;;;26.83;17.50;;;333.40;2329.60;;;;;;5075490;28;20025;-75
2022/04/23 04:41:41;;;;;;;41.53;28.88;;;333.50;2329.60;;;;;;5075805;28;20185;-74
2022/04/23 04:44:07;;;;;;;22.50;12.25;;;333.40;2329.60;;;;;;5074356;28;20389;-75
2022/04/23 04:46:38;;;;;;;23.65;14.20;;;358.50;2329.60;;;;;;5074488;28;20035;-74
2022/04/23 04:49:05;;;;;;;17.00;9.63;;;333.50;2329.60;;;;;;5075741;28;20020;-74
2022/04/23 04:51:31;;;;;;;19.02;10.05;;;333.50;2329.60;;;;;;5074981;28;20508;-74
2022/04/23 04:53:57;;;;;;;24.80;15.38;;;333.50;2329.60;;;;;;5075518;28;20124;-74
2022/04/23 04:56:23;;;;;;;23.30;16.38;;;333.40;2329.60;;;;;;5074339;28;20052;-75
2022/04/23 04:58:49;;;;;;;21.08;13.80;;;333.50;2329.60;;;;;;5074897;28;20031;-76
2022/04/23 05:01:16;;;;;;;24.80;14.43;;;333.50;2329.60;;;;;;5073218;28;20029;-75
2022/04/23 05:03:43;;;;;;;23.63;16.63;;;333.50;2329.60;;;;;;5074607;28;20458;-75
2022/04/23 05:06:09;;;;;;;22.30;13.40;;;333.60;2329.60;;;;;;5075132;28;20024;-75
2022/04/23 05:08:36;;;;;;;34.63;20.38;;;333.60;2329.60;;;;;;5073797;28;20021;-77
2022/04/23 05:11:03;;;;;;;23.67;16.13;;;333.70;2329.60;;;;;;5073314;28;20430;-74
2022/04/23 05:13:30;;;;;;;23.95;15.85;;;333.70;2329.60;;;;;;5074370;28;20035;-75
2022/04/23 05:15:56;;;;;;;30.65;20.27;;;333.70;2329.60;;;;;;5073220;28;20029;-75
2022/04/23 05:18:22;;;;;;;22.75;14.10;;;333.60;2329.60;;;;;;5073215;28;20032;-74
2022/04/23 05:20:48;;;;;;;26.00;15.70;;;333.50;2329.60;;;;;;5073458;28;20073;-75
2022/04/23 05:23:14;;;;;;;24.80;16.00;;;333.70;2329.60;;;;;;5075110;28;20085;-75
2022/04/23 05:25:39;;;;;;;17.23;11.93;;;333.70;2329.60;;;;;;5072361;28;20024;-75
2022/04/23 05:28:06;;;;;;;18.70;11.38;;;358.40;2329.60;;;;;;5073432;28;20028;-75
2022/04/23 05:30:31;;;;;;;17.67;11.65;;;358.50;2329.60;;;;;;5074113;28;20036;-75
2022/04/23 05:32:57;;;;;;;22.13;12.68;;;358.40;2329.60;;;;;;5071496;28;20029;-76
2022/04/23 05:35:23;;;;;;;23.73;11.55;;;358.50;2329.60;;;;;;5073069;28;20025;-75
2022/04/23 05:37:49;;;;;;;21.17;12.88;;;358.40;2329.60;;;;;;5072971;28;20027;-74
2022/04/23 05:40:14;;;;;;;19.27;10.32;;;333.70;2329.60;;;;;;5071402;28;20050;-74
2022/04/23 05:42:40;;;;;;;15.32;9.27;;;333.70;2329.60;;;;;;5073063;28;20052;-75
2022/04/23 05:45:06;;;;;;;19.63;11.50;;;333.70;2329.60;;;;;;5072811;28;20107;-75
2022/04/23 05:47:32;;;;;;;20.17;12.27;;;358.40;2329.60;;;;;;5071644;28;20024;-75
2022/04/23 05:49:58;;;;;;;20.25;14.52;;;358.50;2329.60;;;;;;5074618;28;20370;-75
2022/04/23 05:52:23;;;;;;;28.15;16.67;;;358.50;2329.60;;;;;;5073649;28;20455;-77
2022/04/23 05:54:49;;;;;;;28.65;20.00;;;358.50;2329.60;;;;;;5073722;28;20602;-74
2022/04/23 05:57:15;;;;;;;48.78;29.92;;;358.50;2329.60;;;;;;5072249;28;20029;-74
2022/04/23 05:59:41;;;;;;;45.15;29.55;;;358.50;2329.60;;;;;;5071892;28;20496;-74
2022/04/23 06:02:08;;;;;;;34.08;24.33;;;358.70;2329.60;;;;;;5071937;28;20029;-74
2022/04/23 06:04:34;;;;;;;36.30;24.98;;;358.60;2329.60;;;;;;5072734;28;20427;-74
2022/04/23 06:06:59;;;;;;;33.30;24.95;;;358.60;2329.60;;;;;;5072563;28;20095;-77
2022/04/23 06:09:25;;;;;;;27.27;19.65;;;358.50;2329.60;;;;;;5071788;28;20032;-74
2022/04/23 06:11:51;;;;;;;24.25;16.95;;;358.40;2329.60;;;;;;5072217;28;20037;-74
2022/04/23 06:14:17;;;;;;;25.88;17.17;;;358.40;2329.60;;;;;;5071946;28;20036;-75
2022/04/23 06:16:42;;;;;;;26.58;16.35;;;358.50;2329.60;;;;;;5071676;28;20024;-74
2022/04/23 06:19:08;;;;;;;26.27;17.60;;;358.50;2329.60;;;;;;5073800;28;20024;-73
2022/04/23 06:21:34;;;;;;;21.95;16.52;;;358.70;2329.60;;;;;;5073064;28;20105;-74
2022/04/23 06:24:00;;;;;;;24.60;18.45;;;358.80;2329.60;;;;;;5072315;28;20060;-75
2022/04/23 06:26:26;;;;;;;21.85;16.73;;;358.80;2329.60;;;;;;5071909;28;20048;-77
2022/04/23 06:28:51;;;;;;;23.15;16.98;;;358.90;2329.60;;;;;;5071314;28;20090;-75
2022/04/23 06:31:17;;;;;;;26.95;19.67;;;358.90;2329.60;;;;;;5071950;28;20486;-76
2022/04/23 06:33:43;;;;;;;22.30;16.83;;;358.90;2329.60;;;;;;5073456;28;20036;-74
2022/04/23 06:36:13;;;;;;;18.27;13.00;;;359.00;2176.00;;;;;;5072255;28;20111;-74
2022/04/23 06:38:39;;;;;;;18.98;12.27;;;359.10;2329.60;;;;;;5072425;28;20123;-74
2022/04/23 06:41:05;;;;;;;15.00;10.32;;;359.30;2329.60;;;;;;5071710;28;20107;-77
2022/04/23 06:43:31;;;;;;;19.67;12.25;;;384.00;2329.60;;;;;;5071855;28;20090;-74
2022/04/23 06:45:57;;;;;;;24.05;15.80;;;384.10;2278.40;;;;;;5073587;28;20060;-75
2022/04/23 06:48:23;;;;;;;25.77;15.20;;;384.20;2329.60;;;;;;5073212;28;20074;-76
2022/04/23 06:50:48;;;;;;;26.60;15.48;;;384.20;2329.60;;;;;;5071970;28;20028;-75
2022/04/23 06:53:14;;;;;;;20.17;12.35;;;384.30;2048.00;;;;;;5072212;28;20037;-74
2022/04/23 06:55:40;;;;;;;22.58;11.55;;;384.40;2329.60;;;;;;5070815;28;20033;-76
2022/04/23 06:58:06;;;;;;;16.63;10.48;;;384.40;2329.60;;;;;;5071638;28;20428;-73
2022/04/23 07:00:32;;;;;;;17.02;9.60;;;384.40;2329.60;;;;;;5072917;28;20029;-75
2022/04/23 07:02:57;;;;;;;14.32;8.85;;;384.50;2329.60;;;;;;5072346;28;20435;-74
2022/04/23 07:05:23;;;;;;;20.13;10.45;;;384.60;2329.60;;;;;;5071847;28;20025;-77
2022/04/23 07:08:03;;;;;;;23.45;10.52;;;384.70;2329.60;;;;;;5072365;28;20370;-75
2022/04/23 07:10:30;;;;;;;17.17;8.60;;;384.70;2329.60;;;;;;5072282;28;20025;-75
2022/04/23 07:12:57;;;;;;;14.95;8.38;;;384.80;2329.60;;;;;;5071751;28;20473;-75
2022/04/23 07:15:23;;;;;;;19.23;9.60;;;384.80;2329.60;;;;;;5073442;28;20458;-77
2022/04/23 07:17:50;;;;;;;20.13;11.15;;;384.90;2329.60;;;;;;5072067;28;20028;-76
2022/04/23 07:20:17;;;;;;;19.02;11.70;;;409.90;2355.20;;;;;;5071508;28;20028;-75
2022/04/23 07:25:30;;;;;;;18.77;9.77;;;409.70;2355.20;;;;;;5061464;28;20383;-76
2022/04/23 07:27:56;;;;;;;18.83;10.70;;;409.60;2355.20;;;;;;5071870;28;20055;-75
2022/04/23 07:30:22;;;;;;;18.33;9.60;;;409.60;2355.20;;;;;;5071882;28;20028;-74
2022/04/23 07:32:48;;;;;;;16.58;9.23;;;409.70;2355.20;;;;;;5073003;28;20111;-75
2022/04/23 07:38:09;;;;;;;14.20;8.38;;;409.90;2355.20;;;;;;5072340;28;20050;-75
2022/04/23 07:40:35;;;;;;;17.85;8.35;;;410.00;2355.20;;;;;;5076712;28;20099;-75
2022/04/23 07:43:01;;;;;;;16.23;8.48;;;410.10;2355.20;;;;;;5076600;28;20125;-76
2022/04/23 07:45:26;;;;;;;14.07;8.40;;;410.20;2355.20;;;;;;5076720;28;20107;-74
2022/04/23 07:47:52;;;;;;;17.35;8.40;;;410.30;2355.20;;;;;;5076917;28;20075;-75
2022/04/23 07:50:19;;;;;;;20.60;9.13;;;410.50;2355.20;;;;;;5076624;28;20518;-76
2022/04/23 07:52:45;;;;;;;16.73;11.00;;;435.20;2355.20;;;;;;5075613;28;20119;-75
2022/04/23 07:55:10;;;;;;;21.05;13.73;;;435.30;2355.20;;;;;;5075178;28;20036;-75
2022/04/23 07:57:36;;;;;;;19.63;9.50;;;435.40;2355.20;;;;;;5074816;28;20378;-75
2022/04/23 08:00:03;;;;;;;17.40;9.98;;;435.60;2355.20;;;;;;5074829;28;20024;-76
2022/04/23 08:02:29;;;;;;;17.75;10.88;;;435.70;2355.20;;;;;;5076888;28;20107;-76
2022/04/23 08:04:55;;;;;;;22.13;14.38;;;435.90;2355.20;;;;;;5076321;28;20498;-75
2022/04/23 08:07:20;;;;;;;32.97;23.23;;;435.90;2355.20;;;;;;5074962;28;20020;-74
2022/04/23 08:09:46;;;;;;;37.08;27.92;;;435.90;2355.20;;;;;;5075243;28;20386;-74
2022/04/23 08:12:12;;;;;;;24.10;17.40;;;436.10;2355.20;;;;;;5074073;28;20021;-75
2022/04/23 08:14:38;;;;;;;34.58;22.92;;;436.10;2355.20;;;;;;5076060;28;20039;-74
2022/04/23 08:17:04;;;;;;;21.58;12.60;;;436.10;2355.20;;;;;;5075066;28;20032;-76
2022/04/23 08:19:30;;;;;;;13.10;8.20;;;460.90;2380.80;;;;;;5074530;28;20025;-76
2022/04/23 08:21:56;;;;;;;11.93;6.50;;;461.00;2380.80;;;;;;5075986;28;20025;-73
2022/04/23 08:24:21;;;;;;;14.18;7.15;;;460.80;2380.80;;;;;;5074890;28;20028;-76
2022/04/23 08:26:47;;;;;;;12.48;6.93;;;460.90;2380.80;;;;;;5074910;28;20027;-76
2022/04/23 08:31:57;;;;;;;17.15;8.13;;;460.90;2380.80;;;;;;5076276;28;20094;-75
2022/04/23 08:34:23;;;;;;;13.23;8.35;;;461.10;2380.80;;;;;;5074734;28;20087;-76
2022/04/23 08:36:50;;;;;;;18.80;7.53;;;461.20;2380.80;;;;;;5074511;28;20025;-76
2022/04/23 08:39:16;;;;;;;10.65;6.15;;;461.20;2380.80;;;;;;5076025;28;20031;-77
2022/04/23 08:41:45;;;;;;;16.83;7.95;;;461.40;2380.80;;;;;;5075798;28;20076;-76
2022/04/23 08:44:11;;;;;;;13.77;7.70;;;461.60;2380.80;;;;;;5075446;28;20063;-76
2022/04/23 08:46:38;;;;;;;10.63;4.35;;;461.60;2380.80;;;;;;5075540;28;20024;-75
2022/04/23 08:49:11;;;;;;;16.98;6.00;;;461.40;2380.80;;;;;;5083363;28;20034;-73
2022/04/23 08:51:38;;;;;;;16.23;7.57;;;461.60;2380.80;;;;;;5086309;28;20025;-72
2022/04/23 08:54:12;;;;;;;16.33;6.57;;;486.60;2380.80;;;;;;5080049;28;20064;-75
2022/04/23 08:56:43;;;;;;;16.23;6.75;;;486.50;2380.80;;;;;;5074341;28;20025;-74
2022/04/23 08:59:12;;;;;;;20.35;8.23;;;486.70;2380.80;;;;;;5073261;28;20025;-75
2022/04/23 09:01:38;;;;;;;22.77;8.32;;;486.80;2380.80;;;;;;5074282;28;20104;-76
2022/04/23 09:04:08;;;;;;;12.70;5.38;;;487.10;2380.80;;;;;;5073709;28;20032;-76
2022/04/23 09:06:39;;;;;;;13.07;6.22;;;487.10;2380.80;;;;;;5073928;28;20438;-79
2022/04/23 09:09:11;;;;;;;11.32;6.55;;;487.00;2380.80;;;;;;5074975;28;20150;-76
2022/04/23 09:11:39;;;;;;;13.50;6.47;;;486.90;2380.80;;;;;;5073751;28;20081;-75
2022/04/23 09:14:06;;;;;;;16.23;6.18;;;486.90;2380.80;;;;;;5073689;28;20440;-76
2022/04/23 09:25:08;;;;;;;19.50;8.80;;;487.30;2380.80;;;;;;5074270;28;20036;-77
2022/04/23 09:27:34;;;;;;;15.95;8.52;;;512.20;2380.80;;;;;;5073584;28;20024;-77
2022/04/23 09:30:08;;;;;;;23.10;10.98;;;512.20;2380.80;;;;;;5073493;28;20052;-76
2022/04/23 09:32:35;;;;;;;20.65;9.40;;;512.20;2380.80;;;;;;5073090;28;20033;-77
2022/04/23 09:35:08;;;;;;;18.40;8.52;;;512.10;2380.80;;;;;;5061973;28;20479;-76
2022/04/23 09:40:24;;;;;;;17.48;8.73;;;512.10;2380.80;;;;;;5054568;28;20067;-75
2022/04/23 09:43:00;;;;;;;22.70;10.75;;;512.10;2380.80;;;;;;5054612;28;20040;-76
2022/04/23 09:45:28;;;;;;;23.30;7.07;;;512.10;2380.80;;;;;;5057314;28;20029;-78
2022/04/23 09:47:56;;;;;;;12.00;6.65;;;512.00;2380.80;;;;;;5091301;28;20509;-76
2022/04/23 09:50:23;;;;;;;14.18;7.38;;;487.30;2380.80;;;;;;5081701;28;20028;-75
2022/04/23 09:52:51;;;;;;;21.73;11.55;;;512.20;2380.80;;;;;;5063454;28;20035;-77
2022/04/23 09:55:21;;;;;;;15.82;7.88;;;487.10;2380.80;;;;;;5075323;28;20040;-76
2022/04/23 09:57:48;;;;;;;14.75;6.88;;;487.00;2380.80;;;;;;5065538;28;20024;-76
2022/04/23 10:00:14;;;;;;;17.13;7.05;;;486.90;2380.80;;;;;;5090885;28;20088;-76
2022/04/23 10:02:43;;;;;;;24.33;10.60;;;486.90;2380.80;;;;;;5052585;28;20031;-76
2022/04/23 10:05:11;;;;;;;18.30;7.22;;;486.90;2380.80;;;;;;5073487;28;20428;-78
2022/04/23 10:07:41;;;;;;;10.73;5.90;;;486.80;2380.80;;;;;;5053644;28;20039;-76
2022/04/23 10:10:10;;;;;;;17.05;7.22;;;486.90;2380.80;;;;;;5053724;28;20071;-77
2022/04/23 10:12:38;;;;;;;23.08;9.52;;;487.00;2380.80;;;;;;5063827;28;20478;-76
2022/04/23 10:15:05;;;;;;;28.60;16.88;;;487.00;2380.80;;;;;;5073514;28;20386;-76
2022/04/23 10:17:32;;;;;;;19.50;11.10;;;512.40;2380.80;;;;;;5071585;28;20035;-76
2022/04/23 10:19:59;;;;;;;13.68;6.55;;;512.70;2380.80;;;;;;5059205;28;20075;-77
2022/04/23 10:22:54;;;;;;;16.77;8.48;;;512.80;2380.80;;;;;;5052099;28;20467;-75
2022/04/23 10:25:49;;;;;;;24.92;10.60;;;537.90;2406.40;;;;;;5051622;28;20040;-76
2022/04/23 10:28:17;;;;;;;14.50;6.70;;;538.20;2406.40;;;;;;5068347;28;20029;-76
2022/04/23 10:30:46;;;;;;;13.02;6.95;;;538.30;2406.40;;;;;;5072402;28;20024;-76
2022/04/23 10:33:29;;;;;;;11.32;5.10;;;537.80;2406.40;;;;;;5071515;28;20024;-78
2022/04/23 10:36:09;;;;;;;15.13;5.78;;;512.70;2380.80;;;;;;5080777;28;20024;-75
2022/04/23 10:38:42;;;;;;;15.50;7.43;;;512.50;2380.80;;;;;;5057127;28;20124;-78
2022/04/23 10:41:10;;;;;;;18.83;6.65;;;512.50;2380.80;;;;;;5058515;28;20029;-77
2022/04/23 10:43:49;;;;;;;13.88;7.20;;;512.40;2380.80;;;;;;5053864;28;20081;-77
2022/04/23 10:46:37;;;;;;;20.33;7.18;;;512.20;2380.80;;;;;;5052212;28;20158;-77
2022/04/23 10:49:19;;;;;;;13.48;6.25;;;512.10;2380.80;;;;;;5053133;28;20111;-77
2022/04/23 10:51:47;;;;;;;17.40;7.32;;;487.30;2380.80;;;;;;5067140;28;20035;-75
2022/04/23 10:54:16;;;;;;;13.73;7.38;;;487.10;2380.80;;;;;;5062053;28;20044;-76
2022/04/23 10:56:43;;;;;;;8.45;4.28;;;486.80;2380.80;;;;;;5069195;28;20032;-75
2022/04/23 10:59:42;;;;;;;8.10;4.25;;;486.50;2380.80;;;;;;5051623;28;20028;-77
2022/04/23 11:02:34;;;;;;;11.10;4.18;;;461.50;2380.80;;;;;;5066516;28;20025;-74
2022/04/23 11:14:25;;;;;;;13.40;6.57;;;435.90;2355.20;;;;;;5094862;28;20089;-74
2022/04/23 11:16:55;;;;;;;10.98;6.28;;;435.90;2355.20;;;;;;5097223;28;20085;-74
2022/04/23 11:19:21;;;;;;;11.80;6.03;;;435.80;2355.20;;;;;;5098013;28;20102;-75
2022/04/23 11:21:47;;;;;;;11.88;7.18;;;436.10;2355.20;;;;;;5092293;28;20035;-75
2022/04/23 11:24:15;;;;;;;22.60;9.98;;;460.90;2380.80;;;;;;5082942;28;20106;-73
2022/04/23 11:26:47;;;;;;;13.40;7.38;;;461.40;2380.80;;;;;;5075613;28;20033;-77
2022/04/23 11:29:14;;;;;;;9.13;5.93;;;486.40;2380.80;;;;;;5075230;28;20036;-77
2022/04/23 11:31:49;;;;;;;8.55;4.25;;;461.40;2380.80;;;;;;5071859;28;20073;-75
2022/04/23 11:34:14;;;;;;;7.68;4.55;;;461.40;2380.80;;;;;;5068769;28;20032;-74
2022/04/23 11:36:40;;;;;;;8.43;4.78;;;461.40;2380.80;;;;;;5075908;28;20103;-76
2022/04/23 11:39:10;;;;;;;7.07;2.53;;;461.70;2380.80;;;;;;5073426;28;20028;-77
2022/04/23 11:41:50;;;;;;;5.97;2.20;;;461.60;2380.80;;;;;;5058078;28;20432;-77
2022/04/23 11:44:17;;;;;;;5.53;2.42;;;461.50;2380.80;;;;;;5075197;28;20028;-77
2022/04/23 11:46:51;;;;;;;8.65;4.50;;;461.50;2380.80;;;;;;5059941;28;20021;-75
2022/04/23 11:49:30;;;;;;;7.00;3.33;;;461.60;2380.80;;;;;;5076469;28;20028;-75
2022/04/23 11:52:04;;;;;;;8.50;4.40;;;486.40;2380.80;;;;;;5086288;28;20020;-77
2022/04/23 11:54:41;;;;;;;7.22;5.00;;;486.70;2380.80;;;;;;5077195;28;20032;-75
2022/04/23 11:57:09;;;;;;;6.00;3.50;;;487.00;2380.80;;;;;;5076940;28;20111;-78
2022/04/23 11:59:39;;;;;;;6.53;4.00;;;487.00;2380.80;;;;;;5074687;28;20048;-77
2022/04/23 12:02:29;;;;;;;11.38;6.28;;;487.20;2380.80;;;;;;5077745;28;20024;-78
2022/04/23 12:05:02;;;;;;;14.45;7.57;;;512.00;2380.80;;;;;;5074332;28;20522;-75
2022/04/23 12:07:32;;;;;;;13.38;8.07;;;512.10;2380.80;;;;;;5075211;28;20063;-77
2022/04/23 12:10:00;;;;;;;11.55;5.57;;;512.10;2380.80;;;;;;5057829;28;20021;-77
2022/04/23 12:12:33;;;;;;;8.05;3.90;;;512.20;2380.80;;;;;;5054678;28;20048;-75
2022/04/23 12:15:06;;;;;;;10.13;5.20;;;512.40;2380.80;;;;;;5068434;28;20032;-75
2022/04/23 12:17:45;;;;;;;10.80;6.38;;;512.40;2380.80;;;;;;5072839;28;20469;-73
2022/04/23 12:20:13;;;;;;;7.82;5.30;;;512.50;2380.80;;;;;;5072325;28;20385;-75
2022/04/23 12:22:39;;;;;;;10.05;7.88;;;512.90;2380.80;;;;;;5075973;28;20029;-75
2022/04/23 12:25:19;;;;;;;14.13;9.55;;;537.70;2406.40;;;;;;5074550;28;20032;-74
2022/04/23 12:42:01;;;;;;;17.23;10.98;;;512.70;2380.80;;;;;;5085536;28;20059;-76
2022/04/23 12:44:44;;;;;;;10.48;6.90;;;537.60;2406.40;;;;;;5058469;28;20107;-74
2022/04/23 12:47:29;;;;;;;12.10;6.38;;;537.70;2406.40;;;;;;5074729;28;20098;-74
2022/04/23 12:50:00;;;;;;;14.50;9.27;;;538.10;2406.40;;;;;;5072868;28;20024;-74
2022/04/23 12:52:47;;;;;;;10.18;5.93;;;563.40;2432.00;;;;;;5074756;28;20025;-75